createdAt,value
2018-10-09T00:00:17.518Z,7.53
2018-10-09T00:02:22.342Z,8.57
2018-10-09T00:04:27.159Z,7.77
2018-10-09T00:06:32.213Z,6.37
2018-10-09T00:08:37.221Z,7.70
2018-10-09T00:10:42.398Z,6.80
2018-10-09T00:12:47.462Z,9.80
2018-10-09T00:14:52.272Z,11.97
2018-10-09T00:16:57.044Z,8.43
2018-10-09T00:19:02.215Z,8.67
2018-10-09T00:21:07.321Z,8.50
2018-10-09T00:23:12.169Z,6.77
2018-10-09T00:25:17.045Z,8.70
2018-10-09T00:27:21.871Z,6.73
2018-10-09T00:29:26.724Z,8.70
2018-10-09T00:31:31.519Z,17.93
2018-10-09T00:33:36.742Z,9.47
2018-10-09T00:35:41.676Z,9.97
2018-10-09T00:37:46.564Z,8.87
2018-10-09T00:39:51.377Z,6.10
2018-10-09T00:41:56.232Z,11.77
2018-10-09T00:44:01.062Z,11.80
2018-10-09T00:46:05.964Z,9.10
2018-10-09T00:48:10.699Z,7.33
2018-10-09T00:50:15.831Z,5.87
2018-10-09T00:52:20.768Z,8.00
2018-10-09T00:54:25.633Z,7.80
2018-10-09T00:56:30.459Z,9.07
2018-10-09T00:58:49.542Z,14.00
2018-10-09T01:00:54.265Z,7.77
2018-10-09T01:02:59.007Z,13.70
2018-10-09T01:05:03.888Z,9.63
2018-10-09T01:07:09.304Z,7.37
2018-10-09T01:09:14.275Z,11.73
2018-10-09T01:11:19.147Z,9.70
2018-10-09T01:13:23.935Z,6.17
2018-10-09T01:15:28.699Z,7.73
2018-10-09T01:17:33.719Z,6.37
2018-10-09T01:19:38.544Z,7.47
2018-10-09T01:21:43.350Z,11.20
2018-10-09T01:23:48.091Z,8.60
2018-10-09T01:25:52.843Z,10.73
2018-10-09T01:27:57.745Z,9.53
2018-10-09T01:30:02.561Z,6.87
2018-10-09T01:32:07.465Z,12.37
2018-10-09T01:34:12.341Z,10.60
2018-10-09T01:36:17.107Z,10.30
2018-10-09T01:38:22.022Z,7.53
2018-10-09T01:40:26.817Z,12.20
2018-10-09T01:42:31.611Z,6.77
2018-10-09T01:44:36.361Z,12.90
2018-10-09T01:46:41.219Z,10.40
2018-10-09T01:48:45.912Z,8.57
2018-10-09T01:50:50.667Z,15.33
2018-10-09T01:52:55.461Z,8.20
2018-10-09T01:55:00.216Z,10.60
2018-10-09T01:57:04.937Z,9.13
2018-10-09T01:59:09.730Z,11.03
2018-10-09T02:01:14.610Z,12.20
2018-10-09T02:03:19.749Z,11.80
2018-10-09T02:05:24.536Z,9.33
2018-10-09T02:07:29.278Z,10.67
2018-10-09T02:09:34.286Z,15.87
2018-10-09T02:11:39.215Z,11.33
2018-10-09T02:13:44.085Z,10.00
2018-10-09T02:15:49.183Z,9.10
2018-10-09T02:17:54.021Z,11.97
2018-10-09T02:19:58.846Z,12.50
2018-10-09T02:22:03.821Z,13.77
2018-10-09T02:24:08.913Z,13.33
2018-10-09T02:26:13.728Z,13.77
2018-10-09T02:28:18.413Z,10.90
2018-10-09T02:30:23.345Z,12.40
2018-10-09T02:32:28.066Z,10.43
2018-10-09T02:34:32.873Z,7.83
2018-10-09T02:36:37.804Z,9.00
2018-10-09T02:38:42.761Z,9.37
2018-10-09T02:40:47.387Z,8.20
2018-10-09T02:42:52.109Z,17.90
2018-10-09T02:44:56.958Z,11.40
2018-10-09T02:47:01.899Z,13.43
2018-10-09T02:49:07.092Z,12.73
2018-10-09T02:51:11.952Z,10.47
2018-10-09T02:53:17.052Z,13.83
2018-10-09T02:55:22.053Z,12.67
2018-10-09T02:57:26.847Z,16.33
2018-10-09T02:59:31.923Z,15.90
2018-10-09T03:01:37.036Z,9.53
2018-10-09T03:03:41.824Z,10.70
2018-10-09T03:05:46.559Z,9.37
2018-10-09T03:07:51.733Z,13.13
2018-10-09T03:09:56.495Z,7.47
2018-10-09T03:12:01.274Z,14.30
2018-10-09T03:14:06.444Z,7.90
2018-10-09T03:16:11.529Z,10.07
2018-10-09T03:18:16.716Z,9.10
2018-10-09T03:20:21.549Z,16.80
2018-10-09T03:22:26.636Z,9.50
2018-10-09T03:24:31.724Z,7.23
2018-10-09T03:26:36.723Z,9.03
2018-10-09T03:28:41.550Z,7.77
2018-10-09T03:30:46.860Z,8.10
2018-10-09T03:32:51.937Z,13.33
2018-10-09T03:34:56.769Z,11.77
2018-10-09T03:37:01.805Z,8.63
2018-10-09T03:39:09.130Z,12.63
2018-10-09T03:41:14.078Z,10.00
2018-10-09T03:43:19.097Z,9.50
2018-10-09T03:45:23.962Z,13.23
2018-10-09T03:47:29.009Z,12.40
2018-10-09T03:49:34.094Z,10.97
2018-10-09T03:51:39.045Z,11.00
2018-10-09T03:53:44.068Z,8.27
2018-10-09T03:55:48.816Z,11.43
2018-10-09T03:57:53.534Z,9.37
2018-10-09T03:59:58.782Z,10.53
2018-10-09T04:02:03.860Z,9.30
2018-10-09T04:04:08.862Z,10.53
2018-10-09T04:06:13.647Z,12.30
2018-10-09T04:08:18.433Z,15.27
2018-10-09T04:10:23.539Z,12.40
2018-10-09T04:12:28.596Z,9.20
2018-10-09T04:14:33.662Z,15.10
2018-10-09T04:16:38.796Z,9.30
2018-10-09T04:18:44.201Z,10.60
2018-10-09T04:20:49.266Z,12.13
2018-10-09T04:22:54.381Z,11.43
2018-10-09T04:24:59.181Z,7.00
2018-10-09T04:27:04.182Z,11.13
2018-10-09T04:29:09.118Z,10.53
2018-10-09T04:31:13.901Z,11.43
2018-10-09T04:33:19.132Z,12.37
2018-10-09T04:35:23.920Z,8.83
2018-10-09T04:37:29.116Z,10.67
2018-10-09T04:39:34.193Z,15.17
2018-10-09T04:41:39.251Z,12.03
2018-10-09T04:43:44.468Z,8.30
2018-10-09T04:45:50.531Z,14.10
2018-10-09T04:47:55.803Z,9.50
2018-10-09T04:50:00.820Z,10.50
2018-10-09T04:52:05.817Z,12.10
2018-10-09T04:54:11.040Z,12.43
2018-10-09T04:56:16.295Z,9.90
2018-10-09T04:58:21.511Z,15.50
2018-10-09T05:00:26.414Z,9.67
2018-10-09T05:02:33.022Z,15.73
2018-10-09T05:04:37.894Z,8.37
2018-10-09T05:06:42.766Z,9.43
2018-10-09T05:08:47.982Z,14.23
2018-10-09T05:10:53.142Z,11.57
2018-10-09T05:12:58.555Z,11.93
2018-10-09T05:15:03.732Z,17.03
2018-10-09T05:17:08.667Z,13.87
2018-10-09T05:19:13.936Z,10.77
2018-10-09T05:21:19.070Z,12.90
2018-10-09T05:23:24.632Z,9.50
2018-10-09T05:25:29.713Z,11.73
2018-10-09T05:27:34.457Z,10.27
2018-10-09T05:29:39.462Z,16.87
2018-10-09T05:31:44.510Z,9.03
2018-10-09T05:33:49.729Z,12.67
2018-10-09T05:35:55.306Z,11.23
2018-10-09T05:38:00.242Z,15.83
2018-10-09T05:40:05.328Z,12.03
2018-10-09T05:42:10.299Z,9.47
2018-10-09T05:44:15.505Z,12.47
2018-10-09T05:46:20.565Z,12.70
2018-10-09T05:48:25.665Z,14.33
2018-10-09T05:50:30.552Z,11.73
2018-10-09T05:52:35.587Z,16.50
2018-10-09T05:54:40.815Z,16.07
2018-10-09T05:56:46.494Z,18.13
2018-10-09T05:58:51.573Z,13.93
2018-10-09T06:00:56.481Z,11.27
2018-10-09T06:03:01.786Z,12.97
2018-10-09T06:05:06.745Z,12.50
2018-10-09T06:07:11.631Z,15.37
2018-10-09T06:09:16.724Z,18.80
2018-10-09T06:11:21.719Z,17.10
2018-10-09T06:13:26.877Z,14.20
2018-10-09T06:15:31.905Z,12.40
2018-10-09T06:17:37.114Z,13.07
2018-10-09T06:19:42.315Z,16.87
2018-10-09T06:21:47.517Z,15.30
2018-10-09T06:23:52.615Z,19.00
2018-10-09T06:25:57.324Z,18.00
2018-10-09T06:28:02.930Z,16.70
2018-10-09T06:30:08.421Z,18.87
2018-10-09T06:32:13.352Z,21.93
2018-10-09T06:34:18.221Z,17.30
2018-10-09T06:36:23.250Z,15.40
2018-10-09T06:38:28.081Z,14.00
2018-10-09T06:40:33.348Z,13.23
2018-10-09T06:42:40.015Z,16.60
2018-10-09T06:44:44.990Z,13.57
2018-10-09T06:46:49.895Z,12.70
2018-10-09T06:48:55.629Z,19.00
2018-10-09T06:51:00.502Z,13.00
2018-10-09T06:53:05.594Z,17.30
2018-10-09T06:55:10.542Z,19.43
2018-10-09T06:57:21.954Z,15.00
2018-10-09T06:59:26.908Z,14.27
2018-10-09T07:01:32.068Z,13.23
2018-10-09T07:03:38.419Z,14.70
2018-10-09T07:05:44.333Z,16.73
2018-10-09T07:07:50.127Z,16.17
2018-10-09T07:09:55.166Z,16.27
2018-10-09T07:12:00.593Z,16.00
2018-10-09T07:14:05.761Z,13.00
2018-10-09T07:16:11.245Z,18.03
2018-10-09T07:18:16.146Z,21.83
2018-10-09T07:20:21.068Z,14.87
2018-10-09T07:22:26.170Z,14.70
2018-10-09T07:24:31.056Z,20.13
2018-10-09T07:26:36.097Z,20.27
2018-10-09T07:28:41.347Z,23.13
2018-10-09T07:30:46.721Z,24.83
2018-10-09T07:32:51.896Z,19.80
2018-10-09T07:34:56.659Z,24.40
2018-10-09T07:37:01.938Z,18.93
2018-10-09T07:39:11.832Z,18.70
2018-10-09T07:41:16.893Z,14.97
2018-10-09T07:43:21.683Z,17.53
2018-10-09T07:45:26.519Z,17.77
2018-10-09T07:47:31.577Z,21.93
2018-10-09T07:49:39.509Z,19.43
2018-10-09T07:51:44.618Z,16.97
2018-10-09T07:53:49.566Z,18.47
2018-10-09T07:55:54.656Z,19.30
2018-10-09T07:57:59.524Z,16.40
2018-10-09T08:00:04.620Z,14.80
2018-10-09T08:02:09.622Z,22.53
2018-10-09T08:04:14.645Z,20.73
2018-10-09T08:06:19.718Z,14.70
2018-10-09T08:08:24.837Z,16.97
2018-10-09T08:10:30.110Z,19.13
2018-10-09T08:12:35.161Z,15.70
2018-10-09T08:14:40.160Z,14.97
2018-10-09T08:16:45.257Z,18.90
2018-10-09T08:18:50.058Z,16.60
2018-10-09T08:20:55.295Z,15.20
2018-10-09T08:23:00.406Z,15.80
2018-10-09T08:25:05.550Z,11.90
2018-10-09T08:27:10.471Z,14.33
2018-10-09T08:29:15.605Z,16.83
2018-10-09T08:31:20.593Z,13.00
2018-10-09T08:33:25.594Z,18.33
2018-10-09T08:35:30.584Z,13.90
2018-10-09T08:37:36.350Z,16.63
2018-10-09T08:39:41.155Z,20.63
2018-10-09T08:41:46.055Z,13.07
2018-10-09T08:43:51.071Z,14.07
2018-10-09T08:45:56.152Z,15.30
2018-10-09T08:48:01.298Z,17.10
2018-10-09T08:50:06.941Z,15.47
2018-10-09T08:52:12.132Z,16.20
2018-10-09T08:54:17.475Z,16.27
2018-10-09T08:56:22.519Z,14.63
2018-10-09T08:58:27.470Z,16.73
2018-10-09T09:00:32.384Z,15.50
2018-10-09T09:02:37.594Z,13.30
2018-10-09T09:04:42.774Z,17.00
2018-10-09T09:06:47.779Z,16.17
2018-10-09T09:08:53.089Z,17.87
2018-10-09T09:10:58.180Z,16.10
2018-10-09T09:13:03.070Z,18.27
2018-10-09T09:15:08.665Z,15.47
2018-10-09T09:17:13.861Z,19.60
2018-10-09T09:19:19.044Z,17.77
2018-10-09T09:21:24.081Z,16.90
2018-10-09T09:23:29.184Z,19.70
2018-10-09T09:25:34.302Z,21.97
2018-10-09T09:27:39.339Z,16.23
2018-10-09T09:29:44.393Z,16.50
2018-10-09T09:31:49.611Z,17.23
2018-10-09T09:33:55.175Z,14.67
2018-10-09T09:36:00.373Z,19.20
2018-10-09T09:38:05.375Z,17.30
2018-10-09T09:40:10.712Z,19.63
2018-10-09T09:42:15.734Z,22.10
2018-10-09T09:44:20.874Z,18.63
2018-10-09T09:46:26.134Z,16.20
2018-10-09T09:48:31.124Z,19.47
2018-10-09T09:50:36.332Z,22.53
2018-10-09T09:52:47.544Z,16.10
2018-10-09T09:54:52.517Z,21.30
2018-10-09T09:56:57.398Z,24.73
2018-10-09T09:59:02.635Z,27.57
2018-10-09T10:01:09.118Z,23.27
2018-10-09T10:03:14.245Z,18.43
2018-10-09T10:05:19.322Z,18.33
2018-10-09T10:07:24.523Z,20.20
2018-10-09T10:09:29.714Z,16.13
2018-10-09T10:11:34.607Z,29.97
2018-10-09T10:13:39.683Z,17.67
2018-10-09T10:15:44.702Z,17.10
2018-10-09T10:17:50.032Z,22.93
2018-10-09T10:19:54.906Z,26.67
2018-10-09T10:21:59.952Z,19.87
2018-10-09T10:24:05.092Z,20.47
2018-10-09T10:26:09.982Z,21.17
2018-10-09T10:28:15.083Z,24.50
2018-10-09T10:30:20.173Z,20.50
2018-10-09T10:32:25.389Z,25.20
2018-10-09T10:34:30.546Z,22.13
2018-10-09T10:36:35.867Z,20.87
2018-10-09T10:38:40.993Z,20.93
2018-10-09T10:40:46.100Z,24.07
2018-10-09T10:42:51.336Z,16.97
2018-10-09T10:44:56.610Z,19.50
2018-10-09T10:47:02.879Z,21.90
2018-10-09T10:49:10.172Z,22.47
2018-10-09T10:51:15.213Z,29.70
2018-10-09T10:53:20.378Z,24.73
2018-10-09T10:55:25.480Z,22.13
2018-10-09T10:57:30.671Z,20.93
2018-10-09T10:59:35.726Z,19.13
2018-10-09T11:01:40.853Z,17.50
2018-10-09T11:03:45.761Z,23.00
2018-10-09T11:05:50.802Z,20.83
2018-10-09T11:07:55.771Z,21.40
2018-10-09T11:10:00.643Z,21.23
2018-10-09T11:12:05.733Z,23.40
2018-10-09T11:14:10.761Z,24.40
2018-10-09T11:16:15.872Z,27.90
2018-10-09T11:18:21.012Z,20.97
2018-10-09T11:20:25.943Z,21.33
2018-10-09T11:22:31.278Z,24.90
2018-10-09T11:24:36.500Z,19.60
2018-10-09T11:26:41.779Z,28.07
2018-10-09T11:28:46.650Z,26.23
2018-10-09T11:30:51.504Z,28.00
2018-10-09T11:32:56.566Z,23.20
2018-10-09T11:35:01.635Z,19.80
2018-10-09T11:37:06.639Z,20.83
2018-10-09T11:39:11.576Z,20.90
2018-10-09T11:41:16.739Z,18.17
2018-10-09T11:43:21.651Z,17.10
2018-10-09T11:45:26.459Z,24.27
2018-10-09T11:47:31.412Z,18.97
2018-10-09T11:49:36.594Z,23.50
2018-10-09T11:51:41.656Z,19.03
2018-10-09T11:53:46.902Z,19.20
2018-10-09T11:55:52.086Z,21.20
2018-10-09T11:57:57.348Z,26.00
2018-10-09T12:00:02.403Z,19.37
2018-10-09T12:02:07.460Z,21.90
2018-10-09T12:04:13.213Z,23.27
2018-10-09T12:06:18.694Z,19.17
2018-10-09T12:08:23.847Z,24.33
2018-10-09T12:10:29.058Z,24.23
2018-10-09T12:12:34.102Z,29.90
2018-10-09T12:14:41.747Z,20.23
2018-10-09T12:16:50.585Z,21.10
2018-10-09T12:18:56.888Z,21.50
2018-10-09T12:21:02.158Z,21.73
2018-10-09T12:23:07.807Z,25.30
2018-10-09T12:25:12.994Z,19.30
2018-10-09T12:27:18.218Z,22.50
2018-10-09T12:29:23.300Z,19.73
2018-10-09T12:31:28.750Z,24.13
2018-10-09T12:33:33.956Z,22.17
2018-10-09T12:35:39.117Z,21.30
2018-10-09T12:37:44.660Z,24.00
2018-10-09T12:39:49.908Z,19.37
2018-10-09T12:41:54.899Z,20.57
2018-10-09T12:43:59.831Z,18.90
2018-10-09T12:46:05.016Z,29.73
2018-10-09T12:48:09.949Z,17.10
2018-10-09T12:50:15.228Z,19.63
2018-10-09T12:52:20.263Z,17.00
2018-10-09T12:56:36.660Z,18.90
2018-10-09T12:58:42.275Z,17.07
2018-10-09T13:00:47.569Z,18.20
2018-10-09T13:02:52.684Z,21.27
2018-10-09T13:04:57.939Z,16.87
2018-10-09T13:07:03.014Z,13.60
2018-10-09T13:09:11.845Z,21.30
2018-10-09T13:11:16.981Z,18.17
2018-10-09T13:13:22.367Z,19.33
2018-10-09T13:15:27.518Z,24.87
2018-10-09T13:17:32.459Z,21.60
2018-10-09T13:19:37.712Z,17.70
2018-10-09T13:21:43.662Z,13.27
2018-10-09T13:23:48.389Z,14.50
2018-10-09T13:25:53.375Z,17.83
2018-10-09T13:27:58.983Z,13.40
2018-10-09T13:30:04.048Z,12.67
2018-10-09T13:32:09.090Z,18.43
2018-10-09T13:34:14.530Z,17.43
2018-10-09T13:36:19.599Z,33.17
2018-10-09T13:38:24.376Z,18.50
2018-10-09T13:40:29.603Z,15.50
2018-10-09T13:42:34.321Z,17.70
2018-10-09T13:44:39.278Z,20.50
2018-10-09T13:46:44.625Z,14.27
2018-10-09T13:48:50.309Z,15.00
2018-10-09T13:50:55.310Z,20.20
2018-10-09T13:53:00.415Z,18.60
2018-10-09T13:55:06.085Z,15.17
2018-10-09T13:57:11.324Z,13.67
2018-10-09T13:59:16.426Z,13.70
2018-10-09T14:01:21.466Z,13.97
2018-10-09T14:03:26.913Z,14.17
2018-10-09T14:05:32.146Z,13.60
2018-10-09T14:07:38.340Z,13.93
2018-10-09T14:09:43.424Z,15.23
2018-10-09T14:11:48.369Z,12.60
2018-10-09T14:13:53.257Z,14.37
2018-10-09T14:16:00.016Z,11.97
2018-10-09T14:18:05.184Z,19.03
2018-10-09T14:20:10.716Z,12.23
2018-10-09T14:22:16.224Z,11.70
2018-10-09T14:24:21.426Z,19.60
2018-10-09T14:26:26.616Z,13.40
2018-10-09T14:28:31.659Z,10.63
2018-10-09T14:30:36.742Z,16.67
2018-10-09T14:32:41.772Z,12.30
2018-10-09T14:34:46.661Z,14.27
2018-10-09T14:36:51.638Z,13.50
2018-10-09T14:38:56.732Z,13.47
2018-10-09T14:41:02.025Z,12.10
2018-10-09T14:43:07.245Z,12.10
2018-10-09T14:45:12.335Z,10.23
2018-10-09T14:47:17.403Z,11.50
2018-10-09T14:49:22.776Z,11.13
2018-10-09T14:51:27.501Z,15.30
2018-10-09T14:53:32.430Z,15.10
2018-10-09T14:55:37.301Z,18.77
2018-10-09T14:57:42.515Z,14.23
2018-10-09T14:59:47.716Z,12.50
2018-10-09T15:01:52.888Z,17.80
2018-10-09T15:03:58.058Z,13.90
2018-10-09T15:06:03.031Z,21.80
2018-10-09T15:08:08.417Z,12.63
2018-10-09T15:10:13.489Z,16.37
2018-10-09T15:12:18.717Z,13.43
2018-10-09T15:14:23.600Z,11.47
2018-10-09T15:16:28.779Z,13.70
2018-10-09T15:18:34.091Z,17.60
2018-10-09T15:20:39.489Z,14.37
2018-10-09T15:22:44.922Z,14.70
2018-10-09T15:24:50.828Z,12.27
2018-10-09T15:26:55.875Z,14.27
2018-10-09T15:29:02.774Z,15.70
2018-10-09T15:31:08.247Z,14.83
2018-10-09T15:33:13.149Z,15.80
2018-10-09T15:35:18.096Z,12.70
2018-10-09T15:37:23.365Z,15.77
2018-10-09T15:39:28.291Z,12.30
2018-10-09T15:41:33.257Z,14.57
2018-10-09T15:43:37.971Z,15.10
2018-10-09T15:45:42.791Z,12.90
2018-10-09T15:47:47.619Z,10.87
2018-10-09T15:49:52.623Z,16.93
2018-10-09T15:51:57.751Z,12.37
2018-10-09T15:54:03.366Z,11.70
2018-10-09T15:56:08.670Z,16.40
2018-10-09T15:58:13.795Z,15.23
2018-10-09T16:00:19.119Z,11.60
2018-10-09T16:02:24.044Z,10.90
2018-10-09T16:04:29.037Z,21.20
2018-10-09T16:06:34.516Z,10.93
2018-10-09T16:08:39.834Z,12.47
2018-10-09T16:10:44.882Z,15.20
2018-10-09T16:12:49.778Z,13.63
2018-10-09T16:15:01.009Z,18.33
2018-10-09T16:17:05.927Z,16.40
2018-10-09T16:19:11.031Z,13.47
2018-10-09T16:21:16.029Z,17.20
2018-10-09T16:23:21.092Z,15.30
2018-10-09T16:25:26.013Z,14.93
2018-10-09T16:27:31.085Z,14.60
2018-10-09T16:29:35.882Z,13.07
2018-10-09T16:31:41.040Z,18.53
2018-10-09T16:33:46.108Z,13.33
2018-10-09T16:35:51.180Z,12.80
2018-10-09T16:37:55.988Z,11.87
2018-10-09T16:40:00.999Z,12.60
2018-10-09T16:42:05.782Z,13.73
2018-10-09T16:44:11.159Z,20.13
2018-10-09T16:46:16.202Z,12.90
2018-10-09T16:48:21.107Z,10.33
2018-10-09T16:50:26.017Z,16.00
2018-10-09T16:52:30.827Z,15.23
2018-10-09T16:54:35.821Z,11.17
2018-10-09T16:56:40.794Z,11.07
2018-10-09T16:58:45.846Z,15.13
2018-10-09T17:00:50.835Z,17.67
2018-10-09T17:02:55.735Z,10.37
2018-10-09T17:05:00.613Z,9.60
2018-10-09T17:07:05.440Z,14.60
2018-10-09T17:09:11.699Z,14.30
2018-10-09T17:11:16.542Z,9.37
2018-10-09T17:13:21.438Z,14.20
2018-10-09T17:15:26.336Z,13.50
2018-10-09T17:17:31.370Z,14.00
2018-10-09T17:19:36.176Z,15.20
2018-10-09T17:21:41.197Z,17.27
2018-10-09T17:23:46.855Z,17.60
2018-10-09T17:25:51.724Z,14.10
2018-10-09T17:27:59.969Z,11.60
2018-10-09T17:30:05.318Z,14.43
2018-10-09T17:32:10.303Z,14.00
2018-10-09T17:34:15.555Z,15.50
2018-10-09T17:36:20.615Z,17.87
2018-10-09T17:38:25.443Z,17.60
2018-10-09T17:40:30.378Z,17.33
2018-10-09T17:42:35.323Z,17.53
2018-10-09T17:44:40.232Z,12.73
2018-10-09T17:48:57.605Z,15.73
2018-10-09T17:51:02.522Z,14.60
2018-10-09T17:53:07.733Z,13.33
2018-10-09T17:55:19.667Z,12.33
2018-10-09T17:57:24.596Z,14.67
2018-10-09T17:59:29.390Z,22.40
2018-10-09T18:01:34.720Z,14.30
2018-10-09T18:03:39.862Z,18.60
2018-10-09T18:05:44.870Z,12.10
2018-10-09T18:07:50.386Z,14.37
2018-10-09T18:09:55.473Z,12.43
2018-10-09T18:12:00.528Z,13.43
2018-10-09T18:14:06.145Z,12.23
2018-10-09T18:16:11.308Z,14.03
2018-10-09T18:18:16.281Z,13.60
2018-10-09T18:20:21.592Z,10.43
2018-10-09T18:22:26.506Z,16.37
2018-10-09T18:24:31.974Z,16.17
2018-10-09T18:26:37.575Z,21.07
2018-10-09T18:28:42.960Z,9.37
2018-10-09T18:30:48.145Z,15.60
2018-10-09T18:32:55.100Z,16.73
2018-10-09T18:35:00.451Z,16.30
2018-10-09T18:37:05.918Z,21.40
2018-10-09T18:39:15.912Z,15.87
2018-10-09T18:41:30.284Z,20.03
2018-10-09T18:43:37.157Z,10.90
2018-10-09T18:45:43.864Z,15.20
2018-10-09T18:47:51.149Z,14.53
2018-10-09T18:49:57.569Z,18.43
2018-10-09T18:52:03.004Z,14.57
2018-10-09T18:54:09.758Z,17.93
2018-10-09T18:56:15.333Z,15.20
2018-10-09T18:58:20.661Z,18.40
2018-10-09T19:00:27.937Z,15.03
2018-10-09T19:02:40.268Z,20.90
2018-10-09T19:04:46.308Z,17.27
2018-10-09T19:06:52.217Z,20.90
2018-10-09T19:08:59.479Z,17.13
2018-10-09T19:11:07.020Z,20.00
2018-10-09T19:13:13.544Z,19.20
2018-10-09T19:15:19.411Z,17.53
2018-10-09T19:17:25.193Z,19.30
2018-10-09T19:19:34.374Z,20.20
2018-10-09T19:21:40.165Z,17.63
2018-10-09T19:23:48.886Z,16.40
2018-10-09T19:25:57.738Z,18.90
2018-10-09T19:28:10.120Z,16.27
2018-10-09T19:30:19.459Z,18.87
2018-10-09T19:32:28.221Z,14.23
2018-10-09T19:34:34.948Z,22.43
2018-10-09T19:36:43.141Z,21.30
2018-10-09T19:38:50.681Z,18.47
2018-10-09T19:40:57.613Z,15.40
2018-10-09T19:43:05.034Z,17.87
2018-10-09T19:45:12.372Z,22.00
2018-10-09T19:47:21.901Z,15.20
2018-10-09T19:49:29.664Z,15.20
2018-10-09T19:51:42.386Z,17.93
2018-10-09T19:53:50.789Z,17.70
2018-10-09T19:55:57.965Z,17.40
2018-10-09T19:58:05.755Z,26.43
2018-10-09T20:00:13.365Z,20.20
2018-10-09T20:02:19.428Z,14.93
2018-10-09T20:04:34.024Z,19.67
2018-10-09T20:06:49.085Z,30.17
2018-10-09T20:08:58.827Z,18.37
2018-10-09T20:11:13.856Z,26.20
2018-10-09T20:13:25.627Z,18.17
2018-10-09T20:15:33.877Z,21.20
2018-10-09T20:17:41.752Z,18.40
2018-10-09T20:19:50.830Z,22.00
2018-10-09T20:21:59.146Z,16.13
2018-10-09T20:24:06.699Z,16.47
2018-10-09T20:26:13.496Z,19.50
2018-10-09T20:28:18.951Z,15.83
2018-10-09T20:30:24.459Z,18.47
2018-10-09T20:32:33.439Z,15.07
2018-10-09T20:34:40.280Z,15.77
2018-10-09T20:36:45.805Z,16.17
2018-10-09T20:38:52.352Z,16.47
2018-10-09T20:40:59.700Z,20.10
2018-10-09T20:43:05.916Z,20.27
2018-10-09T20:45:13.032Z,16.00
2018-10-09T20:47:22.177Z,21.87
2018-10-09T20:49:28.882Z,21.70
2018-10-09T20:51:36.502Z,16.87
2018-10-09T20:53:42.017Z,16.80
2018-10-09T20:55:47.070Z,19.63
2018-10-09T20:57:52.749Z,19.23
2018-10-09T20:59:58.094Z,21.63
2018-10-09T21:02:04.263Z,17.60
2018-10-09T21:04:09.472Z,26.03
2018-10-09T21:06:15.078Z,18.40
2018-10-09T21:08:20.528Z,18.43
2018-10-09T21:10:25.869Z,20.20
2018-10-09T21:12:31.253Z,18.40
2018-10-09T21:14:36.234Z,15.33
2018-10-09T21:16:41.494Z,17.13
2018-10-09T21:18:46.815Z,16.07
2018-10-09T21:20:52.018Z,16.83
2018-10-09T21:22:57.821Z,21.33
2018-10-09T21:25:02.863Z,16.10
2018-10-09T21:27:08.538Z,16.33
2018-10-09T21:29:14.286Z,17.37
2018-10-09T21:31:19.885Z,18.70
2018-10-09T21:33:25.524Z,17.97
2018-10-09T21:35:31.038Z,20.73
2018-10-09T21:37:36.312Z,18.23
2018-10-09T21:39:44.107Z,20.10
2018-10-09T21:41:49.345Z,17.03
2018-10-09T21:43:54.343Z,20.03
2018-10-09T21:45:59.641Z,21.53
2018-10-09T21:48:05.412Z,23.80
2018-10-09T21:50:11.142Z,16.10
2018-10-09T21:52:16.760Z,16.70
2018-10-09T21:54:21.978Z,20.73
2018-10-09T21:56:27.342Z,17.40
2018-10-09T21:58:32.671Z,16.50
2018-10-09T22:00:43.332Z,22.73
2018-10-09T22:02:48.625Z,20.60
2018-10-09T22:04:53.822Z,18.23
2018-10-09T22:06:59.074Z,19.60
2018-10-09T22:09:05.169Z,22.07
2018-10-09T22:11:10.226Z,23.40
2018-10-09T22:13:15.528Z,19.90
2018-10-09T22:15:20.741Z,21.20
2018-10-09T22:17:25.986Z,21.17
2018-10-09T22:19:31.236Z,20.47
2018-10-09T22:21:36.488Z,18.43
2018-10-09T22:23:42.628Z,21.43
2018-10-09T22:25:47.662Z,22.73
2018-10-09T22:27:53.784Z,21.60
2018-10-09T22:29:58.853Z,17.77
2018-10-09T22:32:04.053Z,15.90
2018-10-09T22:34:09.135Z,17.83
2018-10-09T22:36:14.157Z,20.33
2018-10-09T22:38:19.413Z,26.43
2018-10-09T22:40:24.685Z,24.70
2018-10-09T22:42:29.713Z,22.37
2018-10-09T22:44:34.942Z,18.70
2018-10-09T22:46:39.790Z,18.10
2018-10-09T22:48:44.883Z,18.70
2018-10-09T22:50:50.239Z,23.03
2018-10-09T22:52:55.278Z,19.93
2018-10-09T22:55:00.477Z,25.23
2018-10-09T22:57:05.593Z,24.97
2018-10-09T22:59:10.846Z,20.67
2018-10-09T23:01:15.719Z,19.80
2018-10-09T23:03:20.509Z,19.93
2018-10-09T23:05:25.633Z,23.83
2018-10-09T23:07:40.382Z,21.13
2018-10-09T23:09:45.553Z,24.23
2018-10-09T23:11:50.638Z,21.83
2018-10-09T23:13:55.633Z,19.53
2018-10-09T23:16:00.666Z,17.30
2018-10-09T23:18:05.587Z,21.13
2018-10-09T23:20:10.597Z,24.57
2018-10-09T23:22:15.514Z,23.60
2018-10-09T23:24:20.352Z,21.00
2018-10-09T23:26:25.366Z,21.87
2018-10-09T23:28:30.424Z,17.57
2018-10-09T23:30:35.674Z,26.73
2018-10-09T23:32:40.591Z,25.17
2018-10-09T23:34:45.545Z,23.50
2018-10-09T23:36:50.398Z,22.47
2018-10-09T23:38:55.429Z,20.70
2018-10-09T23:41:00.327Z,23.10
2018-10-09T23:43:05.470Z,22.00
2018-10-09T23:45:10.682Z,23.07
2018-10-09T23:47:15.584Z,22.93
2018-10-09T23:49:20.581Z,23.87
2018-10-09T23:51:25.596Z,23.83
2018-10-09T23:53:30.425Z,22.87
2018-10-09T23:55:35.528Z,21.73
2018-10-09T23:57:40.497Z,21.50
2018-10-09T23:59:45.443Z,20.33
